createdAt,value
2022-08-30T00:01:03.838Z,3.00
2022-08-30T00:03:36.992Z,3.60
2022-08-30T00:06:06.660Z,3.50
2022-08-30T00:08:34.833Z,3.17
2022-08-30T00:11:03.017Z,3.72
2022-08-30T00:13:30.034Z,3.05
2022-08-30T00:15:57.389Z,3.83
2022-08-30T00:18:24.574Z,3.17
2022-08-30T00:20:52.212Z,3.22
2022-08-30T00:23:19.484Z,3.97
2022-08-30T00:25:46.126Z,3.47
2022-08-30T00:28:14.009Z,4.40
2022-08-30T00:30:41.728Z,2.90
2022-08-30T00:33:08.804Z,3.17
2022-08-30T00:35:35.516Z,3.95
2022-08-30T00:38:02.237Z,3.05
2022-08-30T00:40:30.840Z,3.00
2022-08-30T00:42:59.771Z,2.92
2022-08-30T00:45:35.661Z,3.10
2022-08-30T00:48:02.514Z,3.10
2022-08-30T00:50:33.043Z,3.00
2022-08-30T00:53:01.477Z,3.10
2022-08-30T00:55:29.447Z,3.10
2022-08-30T00:58:00.825Z,4.10
2022-08-30T01:00:29.281Z,3.20
2022-08-30T01:02:56.688Z,3.25
2022-08-30T01:05:24.021Z,3.10
2022-08-30T01:07:51.021Z,3.33
2022-08-30T01:10:17.946Z,2.90
2022-08-30T01:12:45.210Z,3.20
2022-08-30T01:15:14.558Z,3.38
2022-08-30T01:17:44.182Z,3.33
2022-08-30T01:20:14.827Z,3.20
2022-08-30T01:22:50.682Z,4.85
2022-08-30T01:25:21.496Z,5.25
2022-08-30T01:28:01.555Z,4.43
2022-08-30T01:30:29.836Z,3.53
2022-08-30T01:32:59.674Z,3.20
2022-08-30T01:35:28.470Z,4.22
2022-08-30T01:37:55.869Z,3.35
2022-08-30T01:40:22.748Z,3.60
2022-08-30T01:42:50.162Z,3.57
2022-08-30T01:45:17.256Z,3.60
2022-08-30T01:47:43.875Z,4.78
2022-08-30T01:50:11.345Z,4.03
2022-08-30T01:52:40.697Z,3.95
2022-08-30T01:55:08.306Z,3.50
2022-08-30T01:57:35.115Z,3.25
2022-08-30T02:00:01.764Z,4.47
2022-08-30T02:02:29.882Z,3.83
2022-08-30T02:04:57.320Z,4.22
2022-08-30T02:07:25.422Z,3.53
2022-08-30T02:09:53.180Z,3.72
2022-08-30T02:12:20.285Z,3.10
2022-08-30T02:14:46.876Z,3.63
2022-08-30T02:17:14.554Z,4.32
2022-08-30T02:19:41.677Z,3.47
2022-08-30T02:22:08.682Z,4.07
2022-08-30T02:24:35.790Z,3.50
2022-08-30T02:27:02.448Z,3.75
2022-08-30T02:29:29.686Z,3.40
2022-08-30T02:31:56.359Z,3.20
2022-08-30T02:34:23.142Z,4.28
2022-08-30T02:36:49.824Z,3.03
2022-08-30T02:39:16.814Z,3.00
2022-08-30T02:41:43.587Z,3.10
2022-08-30T02:44:10.957Z,4.03
2022-08-30T02:46:37.944Z,3.35
2022-08-30T02:49:23.786Z,3.80
2022-08-30T02:51:52.096Z,4.22
2022-08-30T02:54:20.202Z,3.03
2022-08-30T02:56:48.178Z,3.00
2022-08-30T02:59:16.206Z,3.70
2022-08-30T03:01:43.226Z,3.30
2022-08-30T03:04:10.052Z,4.55
2022-08-30T03:06:36.998Z,3.97
2022-08-30T03:09:03.943Z,3.50
2022-08-30T03:11:31.750Z,3.10
2022-08-30T03:13:58.893Z,3.10
2022-08-30T03:16:25.596Z,3.42
2022-08-30T03:18:52.308Z,3.15
2022-08-30T03:21:18.981Z,3.08
2022-08-30T03:23:46.158Z,3.47
2022-08-30T03:26:14.968Z,3.50
2022-08-30T03:28:42.647Z,4.38
2022-08-30T03:31:09.895Z,4.15
2022-08-30T03:33:37.216Z,3.45
2022-08-30T03:36:04.112Z,4.20
2022-08-30T03:38:31.181Z,3.60
2022-08-30T03:40:57.928Z,4.20
2022-08-30T03:43:25.354Z,4.07
2022-08-30T03:45:52.569Z,3.25
2022-08-30T03:48:19.276Z,2.97
2022-08-30T03:50:45.950Z,3.87
2022-08-30T03:53:12.583Z,4.70
2022-08-30T03:55:39.238Z,4.13
2022-08-30T03:58:06.072Z,3.80
2022-08-30T04:00:32.724Z,3.72
2022-08-30T04:02:59.435Z,3.17
2022-08-30T04:05:27.458Z,4.35
2022-08-30T04:07:54.293Z,3.60
2022-08-30T04:10:21.396Z,4.05
2022-08-30T04:12:49.833Z,3.40
2022-08-30T04:15:17.789Z,3.30
2022-08-30T04:17:44.442Z,4.05
2022-08-30T04:20:11.455Z,3.50
2022-08-30T04:22:38.547Z,3.22
2022-08-30T04:25:06.229Z,3.95
2022-08-30T04:27:33.015Z,4.20
2022-08-30T04:30:00.251Z,4.72
2022-08-30T04:32:27.017Z,4.25
2022-08-30T04:35:00.166Z,5.63
2022-08-30T04:37:26.939Z,4.60
2022-08-30T04:40:00.589Z,4.33
2022-08-30T04:42:31.603Z,4.93
2022-08-30T04:45:00.261Z,5.53
2022-08-30T04:47:26.962Z,4.07
2022-08-30T04:49:53.787Z,5.03
2022-08-30T04:52:20.530Z,5.43
2022-08-30T04:54:47.378Z,4.90
2022-08-30T04:57:14.065Z,4.93
2022-08-30T04:59:40.782Z,4.90
2022-08-30T05:02:07.625Z,4.60
2022-08-30T05:04:34.493Z,5.00
2022-08-30T05:07:01.291Z,4.53
2022-08-30T05:09:27.941Z,4.65
2022-08-30T05:11:55.039Z,4.78
2022-08-30T05:14:21.682Z,5.28
2022-08-30T05:16:48.292Z,5.60
2022-08-30T05:19:14.944Z,5.85
2022-08-30T05:21:41.656Z,6.10
2022-08-30T05:24:08.569Z,4.93
2022-08-30T05:26:37.898Z,7.78
2022-08-30T05:29:04.594Z,5.50
2022-08-30T05:31:34.797Z,6.18
2022-08-30T05:34:01.876Z,5.68
2022-08-30T05:36:30.612Z,7.32
2022-08-30T05:38:57.697Z,7.15
2022-08-30T05:41:26.549Z,6.90
2022-08-30T05:43:58.072Z,7.95
2022-08-30T05:46:29.585Z,7.07
2022-08-30T05:48:57.008Z,6.93
2022-08-30T05:51:25.529Z,7.40
2022-08-30T05:53:53.617Z,7.40
2022-08-30T05:56:24.739Z,8.23
2022-08-30T05:58:52.393Z,7.85
2022-08-30T06:01:21.563Z,7.65
2022-08-30T06:03:48.483Z,7.72
2022-08-30T06:06:16.628Z,7.27
2022-08-30T06:08:45.872Z,8.57
2022-08-30T06:11:14.082Z,7.70
2022-08-30T06:13:42.448Z,7.68
2022-08-30T06:16:12.373Z,7.45
2022-08-30T06:18:39.329Z,7.50
2022-08-30T06:21:06.268Z,7.35
2022-08-30T06:23:33.319Z,7.93
2022-08-30T06:26:07.434Z,7.97
2022-08-30T06:28:34.672Z,8.20
2022-08-30T06:31:01.495Z,7.23
2022-08-30T06:33:28.234Z,8.18
2022-08-30T06:35:58.482Z,7.53
2022-08-30T06:38:25.930Z,8.00
2022-08-30T06:40:52.541Z,8.15
2022-08-30T06:43:19.159Z,7.47
2022-08-30T06:45:45.758Z,8.13
2022-08-30T06:48:12.437Z,7.65
2022-08-30T06:50:42.169Z,8.15
2022-08-30T06:53:14.905Z,8.23
2022-08-30T06:55:42.250Z,8.10
2022-08-30T06:58:09.096Z,7.68
2022-08-30T07:00:39.180Z,7.78
2022-08-30T07:03:05.899Z,7.65
2022-08-30T07:05:33.082Z,7.55
2022-08-30T07:07:59.704Z,8.20
2022-08-30T07:10:26.345Z,9.43
2022-08-30T07:12:52.965Z,8.23
2022-08-30T07:15:22.911Z,7.95
2022-08-30T07:18:08.870Z,8.35
2022-08-30T07:20:40.330Z,8.83
2022-08-30T07:23:08.233Z,7.95
2022-08-30T07:25:39.691Z,8.48
2022-08-30T07:28:06.874Z,8.25
2022-08-30T07:30:34.225Z,9.15
2022-08-30T07:33:00.875Z,8.50
2022-08-30T07:35:28.344Z,8.98
2022-08-30T07:37:55.046Z,9.20
2022-08-30T07:40:21.962Z,8.85
2022-08-30T07:42:48.631Z,9.55
2022-08-30T07:45:15.495Z,7.97
2022-08-30T07:47:42.140Z,8.90
2022-08-30T07:50:08.996Z,9.55
2022-08-30T07:55:07.955Z,8.80
2022-08-30T07:57:34.759Z,8.87
2022-08-30T08:00:01.541Z,9.13
2022-08-30T08:02:28.574Z,9.25
2022-08-30T08:04:55.401Z,8.65
2022-08-30T08:07:22.070Z,9.40
2022-08-30T08:09:49.276Z,8.93
2022-08-30T08:12:15.938Z,9.40
2022-08-30T08:14:43.173Z,8.77
2022-08-30T08:17:10.058Z,9.18
2022-08-30T08:19:36.702Z,8.27
2022-08-30T08:22:20.152Z,8.73
2022-08-30T08:24:47.426Z,9.57
2022-08-30T08:27:14.168Z,9.73
2022-08-30T08:29:40.843Z,8.85
2022-08-30T08:32:07.470Z,9.20
2022-08-30T08:34:35.433Z,9.60
2022-08-30T08:37:02.374Z,10.18
2022-08-30T08:39:28.973Z,9.95
2022-08-30T08:42:13.992Z,10.07
2022-08-30T08:44:55.630Z,10.40
2022-08-30T08:47:28.300Z,9.53
2022-08-30T08:49:57.023Z,9.63
2022-08-30T08:52:48.317Z,10.68
2022-08-30T08:55:19.312Z,10.50
2022-08-30T08:57:46.449Z,9.85
2022-08-30T09:00:14.515Z,10.57
2022-08-30T09:02:47.150Z,10.55
2022-08-30T09:05:18.644Z,10.10
2022-08-30T09:07:49.613Z,10.10
2022-08-30T09:10:23.012Z,10.13
2022-08-30T09:15:44.454Z,10.30
2022-08-30T09:18:19.158Z,12.20
2022-08-30T09:20:49.099Z,12.25
2022-08-30T09:23:15.761Z,11.02
2022-08-30T09:25:59.377Z,11.33
2022-08-30T09:28:27.570Z,10.77
2022-08-30T09:31:27.716Z,9.85
2022-08-30T09:34:18.705Z,11.95
2022-08-30T09:36:49.806Z,11.15
2022-08-30T09:39:30.429Z,11.33
2022-08-30T09:42:13.050Z,10.10
2022-08-30T09:44:39.893Z,10.15
2022-08-30T09:47:38.811Z,10.77
2022-08-30T09:50:13.701Z,10.00
2022-08-30T09:52:42.957Z,10.13
2022-08-30T09:55:28.003Z,11.07
2022-08-30T09:58:18.497Z,11.50
2022-08-30T10:01:09.613Z,9.70
2022-08-30T10:03:54.716Z,10.20
2022-08-30T10:06:46.583Z,9.57
2022-08-30T10:09:32.054Z,10.30
2022-08-30T10:12:31.408Z,10.27
2022-08-30T10:15:15.206Z,9.15
2022-08-30T10:17:48.759Z,10.10
2022-08-30T10:20:15.480Z,9.60
2022-08-30T10:22:46.690Z,9.75
2022-08-30T10:25:21.343Z,9.90
2022-08-30T10:27:56.522Z,7.93
2022-08-30T10:30:23.461Z,9.93
2022-08-30T10:32:58.110Z,10.97
2022-08-30T10:35:29.081Z,9.30
2022-08-30T10:38:06.584Z,8.75
2022-08-30T10:41:01.734Z,9.05
2022-08-30T10:44:11.965Z,8.20
2022-08-30T10:47:11.039Z,8.97
2022-08-30T10:49:40.903Z,7.95
2022-08-30T10:52:26.147Z,7.28
2022-08-30T10:55:00.751Z,8.77
2022-08-30T10:57:27.417Z,8.20
2022-08-30T11:00:05.966Z,6.90
2022-08-30T11:03:27.080Z,7.38
2022-08-30T11:06:30.426Z,7.65
2022-08-30T11:09:01.589Z,6.72
2022-08-30T11:11:34.265Z,5.60
2022-08-30T11:14:07.875Z,5.70
2022-08-30T11:16:40.279Z,8.80
2022-08-30T11:19:26.669Z,6.25
2022-08-30T11:22:18.247Z,6.60
2022-08-30T11:25:09.681Z,5.07
2022-08-30T11:27:55.336Z,5.60
2022-08-30T11:30:26.796Z,5.60
2022-08-30T11:33:08.411Z,5.82
2022-08-30T11:35:39.777Z,5.50
2022-08-30T11:38:30.899Z,5.10
2022-08-30T11:41:00.448Z,5.70
2022-08-30T11:43:40.056Z,5.00
2022-08-30T11:46:28.349Z,4.60
2022-08-30T11:49:02.475Z,6.45
2022-08-30T11:51:36.439Z,4.88
2022-08-30T11:54:04.980Z,7.30
2022-08-30T11:56:43.519Z,4.93
2022-08-30T11:59:26.536Z,5.93
2022-08-30T12:01:53.278Z,4.75
2022-08-30T12:04:19.881Z,4.53
2022-08-30T12:06:56.949Z,3.80
2022-08-30T12:09:23.528Z,4.60
2022-08-30T12:11:58.620Z,4.88
2022-08-30T12:14:49.046Z,4.47
2022-08-30T12:17:44.454Z,3.53
2022-08-30T12:20:23.072Z,5.67
2022-08-30T12:22:51.348Z,3.13
2022-08-30T12:25:32.686Z,3.50
2022-08-30T12:28:10.828Z,3.28
2022-08-30T12:30:40.072Z,3.17
2022-08-30T12:33:12.091Z,3.10
2022-08-30T12:35:40.357Z,3.20
2022-08-30T12:38:18.456Z,4.03
2022-08-30T12:41:05.877Z,3.30
2022-08-30T12:43:41.661Z,3.30
2022-08-30T12:46:12.657Z,3.10
2022-08-30T12:48:42.496Z,4.65
2022-08-30T12:51:25.303Z,2.95
2022-08-30T12:53:52.055Z,3.40
2022-08-30T12:56:30.464Z,3.20
2022-08-30T12:59:05.291Z,3.03
2022-08-30T13:01:36.974Z,3.75
2022-08-30T13:04:20.220Z,3.22
2022-08-30T13:06:50.715Z,8.38
2022-08-30T13:09:27.673Z,2.83
2022-08-30T13:12:00.480Z,4.07
2022-08-30T13:14:43.634Z,2.90
2022-08-30T13:17:10.407Z,3.08
2022-08-30T13:19:43.932Z,2.80
2022-08-30T13:22:30.108Z,2.72
2022-08-30T13:24:56.798Z,3.67
2022-08-30T13:27:25.161Z,2.67
2022-08-30T13:29:51.842Z,3.00
2022-08-30T13:32:19.186Z,2.72
2022-08-30T13:34:46.139Z,2.60
2022-08-30T13:40:11.265Z,3.85
2022-08-30T13:42:38.367Z,3.13
2022-08-30T13:45:40.929Z,3.30
2022-08-30T13:47:52.066Z,2.58
2022-08-30T13:50:20.994Z,2.83
2022-08-30T13:52:47.689Z,5.32
2022-08-30T13:55:15.142Z,4.25
2022-08-30T13:57:58.052Z,2.72
2022-08-30T14:00:25.719Z,3.47
2022-08-30T14:02:57.754Z,2.63
2022-08-30T14:05:50.674Z,3.00
2022-08-30T14:11:15.820Z,2.97
2022-08-30T14:16:33.100Z,5.23
2022-08-30T14:19:00.711Z,3.78
2022-08-30T14:21:27.865Z,3.17
2022-08-30T14:23:58.840Z,4.85
2022-08-30T14:26:37.353Z,2.80
2022-08-30T14:29:09.216Z,3.27
2022-08-30T14:31:37.580Z,3.10
2022-08-30T14:34:05.456Z,2.63
2022-08-30T14:36:34.203Z,3.10
2022-08-30T14:39:01.654Z,3.58
2022-08-30T14:41:28.343Z,3.60
2022-08-30T14:43:55.148Z,2.45
2022-08-30T14:46:24.717Z,3.38
2022-08-30T14:48:53.999Z,3.22
2022-08-30T14:51:22.242Z,4.25
2022-08-30T14:53:52.363Z,3.00
2022-08-30T14:56:20.505Z,4.72
2022-08-30T14:58:51.288Z,4.05
2022-08-30T15:01:18.750Z,3.65
2022-08-30T15:03:46.575Z,3.88
2022-08-30T15:06:13.751Z,3.37
2022-08-30T15:08:40.751Z,5.15
2022-08-30T15:11:12.489Z,2.75
2022-08-30T15:13:40.326Z,3.55
2022-08-30T15:16:14.947Z,3.58
2022-08-30T15:18:41.916Z,2.90
2022-08-30T15:21:08.948Z,2.97
2022-08-30T15:23:36.859Z,3.63
2022-08-30T15:26:04.004Z,3.10
2022-08-30T15:28:31.341Z,2.53
2022-08-30T15:30:58.089Z,3.00
2022-08-30T15:33:25.133Z,5.53
2022-08-30T15:35:52.370Z,3.90
2022-08-30T15:38:19.580Z,3.22
2022-08-30T15:40:49.885Z,3.60
2022-08-30T15:43:17.045Z,4.73
2022-08-30T15:45:44.131Z,3.42
2022-08-30T15:48:11.138Z,3.70
2022-08-30T15:50:37.890Z,4.72
2022-08-30T15:53:07.447Z,3.38
2022-08-30T15:55:34.221Z,3.20
2022-08-30T15:58:00.935Z,5.25
2022-08-30T16:00:27.780Z,3.63
2022-08-30T16:02:56.931Z,4.13
2022-08-30T16:05:23.759Z,3.70
2022-08-30T16:07:52.394Z,5.00
2022-08-30T16:10:19.528Z,3.88
2022-08-30T16:12:46.242Z,3.92
2022-08-30T16:15:13.434Z,3.75
2022-08-30T16:17:40.119Z,3.55
2022-08-30T16:20:08.166Z,3.47
2022-08-30T16:22:35.676Z,4.03
2022-08-30T16:25:05.073Z,4.03
2022-08-30T16:27:33.707Z,4.18
2022-08-30T16:30:00.361Z,4.13
2022-08-30T16:32:27.039Z,3.47
2022-08-30T16:34:53.651Z,5.50
2022-08-30T16:37:20.500Z,5.15
2022-08-30T16:39:47.180Z,4.65
2022-08-30T16:42:15.042Z,4.57
2022-08-30T16:44:48.340Z,4.33
2022-08-30T16:47:16.604Z,3.50
2022-08-30T16:49:44.083Z,3.30
2022-08-30T16:52:11.507Z,3.60
2022-08-30T16:54:38.555Z,3.13
2022-08-30T16:57:06.466Z,2.70
2022-08-30T16:59:33.299Z,3.00
2022-08-30T17:02:01.005Z,3.15
2022-08-30T17:04:27.724Z,3.67
2022-08-30T17:06:54.402Z,2.90
2022-08-30T17:09:22.271Z,3.83
2022-08-30T17:11:49.296Z,3.25
2022-08-30T17:17:03.934Z,3.33
2022-08-30T17:19:30.966Z,3.75
2022-08-30T17:21:58.358Z,3.50
2022-08-30T17:24:25.302Z,2.95
2022-08-30T17:26:52.531Z,3.33
2022-08-30T17:29:19.611Z,3.67
2022-08-30T17:31:50.846Z,3.45
2022-08-30T17:34:18.368Z,3.73
2022-08-30T17:36:45.418Z,2.88
2022-08-30T17:39:13.063Z,3.05
2022-08-30T17:41:48.296Z,3.67
2022-08-30T17:44:19.776Z,3.65
2022-08-30T17:46:46.604Z,3.17
2022-08-30T17:49:13.529Z,3.65
2022-08-30T17:51:42.871Z,2.95
2022-08-30T17:54:12.046Z,2.60
2022-08-30T17:56:40.035Z,3.85
2022-08-30T17:59:09.033Z,3.13
2022-08-30T18:01:36.434Z,3.85
2022-08-30T18:04:06.299Z,3.17
2022-08-30T18:06:34.182Z,2.70
2022-08-30T18:09:01.914Z,2.92
2022-08-30T18:11:28.574Z,4.10
2022-08-30T18:13:55.248Z,2.83
2022-08-30T18:16:26.713Z,4.50
2022-08-30T18:18:57.374Z,2.95
2022-08-30T18:21:25.366Z,2.95
2022-08-30T18:23:53.393Z,2.90
2022-08-30T18:26:24.136Z,4.60
2022-08-30T18:28:51.363Z,3.47
2022-08-30T18:31:18.095Z,2.92
2022-08-30T18:33:45.100Z,3.65
2022-08-30T18:36:11.830Z,3.27
2022-08-30T18:38:39.656Z,2.90
2022-08-30T18:41:08.251Z,3.00
2022-08-30T18:43:35.815Z,2.90
2022-08-30T18:46:09.376Z,3.70
2022-08-30T18:48:36.917Z,4.33
2022-08-30T18:51:04.197Z,3.72
2022-08-30T18:53:32.338Z,8.55
2022-08-30T18:55:59.843Z,4.07
2022-08-30T18:58:26.687Z,5.05
2022-08-30T19:00:56.750Z,3.23
2022-08-30T19:03:23.691Z,3.53
2022-08-30T19:05:50.631Z,4.72
2022-08-30T19:08:17.518Z,3.17
2022-08-30T19:10:44.501Z,3.28
2022-08-30T19:13:11.165Z,2.90
2022-08-30T19:15:38.254Z,3.60
2022-08-30T19:18:16.782Z,3.42
2022-08-30T19:20:48.866Z,3.72
2022-08-30T19:23:15.494Z,3.40
2022-08-30T19:25:42.663Z,3.77
2022-08-30T19:28:10.366Z,3.40
2022-08-30T19:30:37.098Z,3.58
2022-08-30T19:33:03.779Z,4.35
2022-08-30T19:35:32.473Z,3.30
2022-08-30T19:37:59.487Z,3.93
2022-08-30T19:40:26.242Z,3.78
2022-08-30T19:42:53.275Z,4.05
2022-08-30T19:45:21.455Z,4.03
2022-08-30T19:47:49.405Z,4.50
2022-08-30T19:50:16.904Z,3.47
2022-08-30T19:52:45.621Z,4.13
2022-08-30T19:55:14.619Z,4.28
2022-08-30T19:57:43.391Z,4.55
2022-08-30T20:00:12.553Z,3.10
2022-08-30T20:02:43.841Z,3.00
2022-08-30T20:05:11.309Z,3.60
2022-08-30T20:07:39.637Z,4.70
2022-08-30T20:10:09.798Z,4.72
2022-08-30T20:12:37.273Z,5.15
2022-08-30T20:15:10.268Z,5.03
2022-08-30T20:18:03.276Z,3.15
2022-08-30T20:20:25.151Z,5.53
2022-08-30T20:22:54.118Z,3.72
2022-08-30T20:24:23.923Z,2.80
2022-08-30T20:25:21.395Z,3.55
2022-08-30T20:27:49.075Z,3.97
2022-08-30T20:30:17.123Z,4.45
2022-08-30T20:32:46.890Z,3.95
2022-08-30T20:35:15.497Z,4.30
2022-08-30T20:37:43.328Z,3.55
2022-08-30T20:40:15.653Z,3.97
2022-08-30T20:42:45.508Z,5.15
2022-08-30T20:45:16.918Z,3.67
2022-08-30T20:47:44.012Z,3.55
2022-08-30T20:50:14.404Z,3.67
2022-08-30T20:52:41.775Z,3.20
2022-08-30T20:55:10.082Z,3.33
2022-08-30T20:57:37.095Z,4.25
2022-08-30T21:00:06.053Z,3.75
2022-08-30T21:02:34.336Z,3.50
2022-08-30T21:05:01.322Z,3.73
2022-08-30T21:07:27.989Z,3.72
2022-08-30T21:09:56.735Z,4.93
2022-08-30T21:12:23.776Z,4.38
2022-08-30T21:14:50.414Z,4.28
2022-08-30T21:17:17.937Z,4.10
2022-08-30T21:19:44.671Z,3.28
2022-08-30T21:22:11.518Z,3.20
2022-08-30T21:24:38.171Z,4.30
2022-08-30T21:27:04.971Z,3.50
2022-08-30T21:29:33.054Z,4.07
2022-08-30T21:31:59.680Z,4.05
2022-08-30T21:34:26.353Z,4.70
2022-08-30T21:36:53.350Z,3.35
2022-08-30T21:39:22.387Z,4.13
2022-08-30T21:41:51.000Z,3.73
2022-08-30T21:44:20.206Z,4.25
2022-08-30T21:46:48.357Z,4.72
2022-08-30T21:49:17.759Z,3.55
2022-08-30T21:51:46.254Z,6.20
2022-08-30T21:54:14.690Z,3.53
2022-08-30T21:56:43.423Z,4.15
2022-08-30T21:59:10.998Z,3.47
2022-08-30T22:01:38.153Z,3.40
2022-08-30T22:04:06.561Z,3.85
2022-08-30T22:06:34.605Z,3.87
2022-08-30T22:09:03.511Z,4.43
2022-08-30T22:11:31.634Z,3.40
2022-08-30T22:13:58.753Z,3.67
2022-08-30T22:16:27.482Z,5.28
2022-08-30T22:18:54.255Z,3.60
2022-08-30T22:21:25.952Z,3.15
2022-08-30T22:23:53.345Z,3.92
2022-08-30T22:26:21.120Z,4.65
2022-08-30T22:28:48.287Z,4.60
2022-08-30T22:31:16.278Z,3.93
2022-08-30T22:33:43.253Z,4.15
2022-08-30T22:36:13.707Z,3.88
2022-08-30T22:38:41.134Z,3.40
2022-08-30T22:41:10.361Z,3.50
2022-08-30T22:43:37.042Z,3.70
2022-08-30T22:46:04.146Z,4.55
2022-08-30T22:48:30.806Z,3.70
2022-08-30T22:50:57.448Z,4.85
2022-08-30T22:53:24.881Z,4.10
2022-08-30T22:55:51.512Z,7.67
2022-08-30T22:58:19.052Z,5.45
2022-08-30T23:00:54.670Z,3.50
2022-08-30T23:03:22.291Z,3.30
2022-08-30T23:05:48.907Z,5.25
2022-08-30T23:08:15.554Z,3.33
2022-08-30T23:10:42.313Z,3.13
2022-08-30T23:13:08.940Z,3.47
2022-08-30T23:15:35.609Z,3.67
2022-08-30T23:18:02.653Z,3.47
2022-08-30T23:20:29.356Z,4.13
2022-08-30T23:22:58.655Z,4.45
2022-08-30T23:25:51.852Z,3.38
2022-08-30T23:28:39.357Z,3.10
2022-08-30T23:31:33.848Z,5.43
2022-08-30T23:34:19.654Z,5.70
2022-08-30T23:37:05.376Z,4.55
2022-08-30T23:39:50.370Z,3.85
2022-08-30T23:42:35.603Z,4.18
2022-08-30T23:45:20.750Z,3.20
2022-08-30T23:48:05.854Z,3.83
2022-08-30T23:50:50.894Z,5.30
2022-08-30T23:53:36.232Z,3.63
2022-08-30T23:56:21.746Z,4.25
2022-08-30T23:59:06.956Z,3.67
